Kennicott — WCY2920 — position and weather

sailwx.info

Track history (hours):
 
Tides and Currents Weather Stations Pressure Air Temp Water Temp Dewpoint Dewpoint Depression Visibility Wind Speed Wind Dir Waves Ship Positions

Kennicott

Owner: ALASKA, STATE OF, Anchorage, AK. More information available from US FCC via Universal Licensing System and Coast Guard Vessel Documentation Center.

Last reported at 2017-May-28 06:06 UTC. Time now 2017-May-28 06:43 UTC.
Position N 49°23' W 124°05'.

Type: Ship. MMSI: 368250000.

Date/timePositionNaut miles runAvg speedWind from/ knotsBaromVisibWave heightAir tempDewpointWater temp
2017-May-28 06:06N 49°23' W 124°05'216.6
2017-May-28 06:00N 49°23' W 124°03'917.0
2017-May-28 05:30N 49°21' W 123°50'815.9
2017-May-28 05:00N 49°16' W 123°40'817.0
2017-May-28 04:30N 49°10' W 123°31'816.9
2017-May-28 04:00N 49°05' W 123°21'916.8
2017-May-28 03:30N 48°59' W 123°12'917.7
2017-May-28 03:00N 48°53' W 123°02'1018.2
2017-May-28 02:28N 48°47' W 122°50'818.2
2017-May-28 02:01N 48°41' W 122°42'611.5
2017-May-28 01:30N 48°40' W 122°33'3 5.0
2017-May-28 00:48N 48°43' W 122°31'0 0.0
2017-May-28 00:18N 48°43' W 122°31'0 0.0
2017-May-27 23:36N 48°43' W 122°31'0 0.0
2017-May-27 23:24N 48°43' W 122°31'0 0.0
2017-May-27 23:00N 48°43' W 122°31'0 0.0
2017-May-27 22:30N 48°43' W 122°31'0 0.0
2017-May-27 21:57N 48°43' W 122°31'0 0.0
2017-May-27 21:30N 48°43' W 122°31'0 0.0
2017-May-27 21:00N 48°43' W 122°31'0 0.0
2017-May-27 20:30N 48°43' W 122°31'0 0.0
2017-May-27 20:00N 48°43' W 122°31'0 0.0
2017-May-27 19:24N 48°43' W 122°31'0 0.0
2017-May-27 18:57N 48°43' W 122°31'0 0.0
2017-May-27 18:30N 48°43' W 122°31'0 0.0
2017-May-27 18:00N 48°43' W 122°31'0 0.0
2017-May-27 17:30N 48°43' W 122°31'0 0.0
2017-May-27 16:54N 48°43' W 122°31'0 0.0
2017-May-27 16:30N 48°43' W 122°31'0 0.0
2017-May-27 16:00N 48°43' W 122°31'0 0.0
2017-May-27 15:30N 48°43' W 122°31'0 0.0
2017-May-27 15:00N 48°43' W 122°31'7 7.3
2017-May-27 14:00N 48°37' W 122°37'713.2
2017-May-27 13:30N 48°42' W 122°45'612.1
2017-May-27 12:58N 48°46' W 122°51'613.2
2017-May-27 12:30N 48°50' W 122°60'713.1
2017-May-27 12:00N 48°54' W 123°07'713.7
2017-May-27 11:29N 48°58' W 123°16'713.4
2017-May-27 11:00N 49°03' W 123°23'713.6
2017-May-27 10:29N 49°08' W 123°30'714.0
2017-May-27 10:00N 49°13' W 123°37'612.5
2017-May-27 09:30N 49°18' W 123°43'713.1
2017-May-27 09:00N 49°21' W 123°51'713.7
2017-May-27 08:29N 49°23' W 124°02'1113.0
2017-May-27 07:38N 49°26' W 124°18'213.5
2017-May-27 07:29N 49°27' W 124°21'713.8
2017-May-27 07:00N 49°32' W 124°28'713.6
2017-May-27 06:30N 49°36' W 124°36'714.5
2017-May-27 06:00N 49°41' W 124°44'714.3
2017-May-27 05:30N 49°47' W 124°52'714.3
2017-May-27 05:00N 49°52' W 124°59'816.7
2017-May-27 04:30N 49°57' W 125°09'612.2
2017-May-27 04:00N 50°03' W 125°14'611.5
2017-May-27 03:31N 50°07' W 125°19'510.9
2017-May-27 03:00N 50°12' W 125°23'3 5.9
2017-May-27 02:31N 50°15' W 125°23'5 9.2
2017-May-27 01:59N 50°20' W 125°25'1015.7
2017-May-27 01:21N 50°22' W 125°41'1517.5
2017-May-27 00:28N 50°27' W 126°04'917.7
2017-May-26 23:58N 50°29' W 126°17'817.8
2017-May-26 23:29N 50°30' W 126°30'1017.4
2017-May-26 22:55N 50°33' W 126°46'815.9
2017-May-26 22:26N 50°35' W 126°57'512.0
2017-May-26 22:00N 50°37' W 127°05'1016.7
2017-May-26 21:24N 50°42' W 127°18'2714.8
2017-May-26 19:35N 51°02' W 127°47'116.4
2017-May-26 19:30N 51°03' W 127°47'816.2
2017-May-26 19:00N 51°11' W 127°51'815.6
2017-May-26 18:30N 51°19' W 127°52'815.3
2017-May-26 18:00N 51°27' W 127°51'815.9
2017-May-26 17:30N 51°34' W 127°53'815.8
2017-May-26 17:01N 51°42' W 127°55'815.9
2017-May-26 16:31N 51°50' W 127°56'816.2
2017-May-26 16:01N 51°58' W 127°56'1212.5
2017-May-26 15:04N 52°07' W 128°08'115.6
2017-May-26 15:01N 52°08' W 128°08'8 8.6
2017-May-26 14:05N 52°14' W 128°16'915.8
2017-May-26 13:30N 52°16' W 128°30'815.5
2017-May-26 13:00N 52°24' W 128°30'917.0
2017-May-26 12:28N 52°33' W 128°28'  
2017-May-22 05:00N 57°42' W 152°24'43 1.2 270 / 11004.510.8 14.4 5.9
2017-May-20 16:00N 57°00' W 152°06'   090 / 131011.0 5.4 7.8 3.1
Track history (hours):
 
Tides and Currents Weather Stations Pressure Air Temp Water Temp Dewpoint Dewpoint Depression Visibility Wind Speed Wind Dir Waves Ship Positions

Kennicott

Owner: ALASKA, STATE OF, Anchorage, AK. More information available from US FCC via Universal Licensing System and Coast Guard Vessel Documentation Center.

Last reported at 2017-May-28 06:06 UTC. Time now 2017-May-28 06:43 UTC.
Position N 49°23' W 124°05'.

Type: Ship. MMSI: 368250000.

Date/timePositionNaut miles runAvg speedWind from/ knotsBaromVisibWave heightAir tempDewpointWater temp
2017-May-28 06:06N 49°23' W 124°05'216.6
2017-May-28 06:00N 49°23' W 124°03'917.0
2017-May-28 05:30N 49°21' W 123°50'815.9
2017-May-28 05:00N 49°16' W 123°40'817.0
2017-May-28 04:30N 49°10' W 123°31'816.9
2017-May-28 04:00N 49°05' W 123°21'916.8
2017-May-28 03:30N 48°59' W 123°12'917.7
2017-May-28 03:00N 48°53' W 123°02'1018.2
2017-May-28 02:28N 48°47' W 122°50'818.2
2017-May-28 02:01N 48°41' W 122°42'611.5
2017-May-28 01:30N 48°40' W 122°33'3 5.0
2017-May-28 00:48N 48°43' W 122°31'0 0.0
2017-May-28 00:18N 48°43' W 122°31'0 0.0
2017-May-27 23:36N 48°43' W 122°31'0 0.0
2017-May-27 23:24N 48°43' W 122°31'0 0.0
2017-May-27 23:00N 48°43' W 122°31'0 0.0
2017-May-27 22:30N 48°43' W 122°31'0 0.0
2017-May-27 21:57N 48°43' W 122°31'0 0.0
2017-May-27 21:30N 48°43' W 122°31'0 0.0
2017-May-27 21:00N 48°43' W 122°31'0 0.0
2017-May-27 20:30N 48°43' W 122°31'0 0.0
2017-May-27 20:00N 48°43' W 122°31'0 0.0
2017-May-27 19:24N 48°43' W 122°31'0 0.0
2017-May-27 18:57N 48°43' W 122°31'0 0.0
2017-May-27 18:30N 48°43' W 122°31'0 0.0
2017-May-27 18:00N 48°43' W 122°31'0 0.0
2017-May-27 17:30N 48°43' W 122°31'0 0.0
2017-May-27 16:54N 48°43' W 122°31'0 0.0
2017-May-27 16:30N 48°43' W 122°31'0 0.0
2017-May-27 16:00N 48°43' W 122°31'0 0.0
2017-May-27 15:30N 48°43' W 122°31'0 0.0
2017-May-27 15:00N 48°43' W 122°31'7 7.3
2017-May-27 14:00N 48°37' W 122°37'713.2
2017-May-27 13:30N 48°42' W 122°45'612.1
2017-May-27 12:58N 48°46' W 122°51'613.2
2017-May-27 12:30N 48°50' W 122°60'713.1
2017-May-27 12:00N 48°54' W 123°07'713.7
2017-May-27 11:29N 48°58' W 123°16'713.4
2017-May-27 11:00N 49°03' W 123°23'713.6
2017-May-27 10:29N 49°08' W 123°30'714.0
2017-May-27 10:00N 49°13' W 123°37'612.5
2017-May-27 09:30N 49°18' W 123°43'713.1
2017-May-27 09:00N 49°21' W 123°51'713.7
2017-May-27 08:29N 49°23' W 124°02'1113.0
2017-May-27 07:38N 49°26' W 124°18'213.5
2017-May-27 07:29N 49°27' W 124°21'713.8
2017-May-27 07:00N 49°32' W 124°28'713.6
2017-May-27 06:30N 49°36' W 124°36'714.5
2017-May-27 06:00N 49°41' W 124°44'714.3
2017-May-27 05:30N 49°47' W 124°52'714.3
2017-May-27 05:00N 49°52' W 124°59'816.7
2017-May-27 04:30N 49°57' W 125°09'612.2
2017-May-27 04:00N 50°03' W 125°14'611.5
2017-May-27 03:31N 50°07' W 125°19'510.9
2017-May-27 03:00N 50°12' W 125°23'3 5.9
2017-May-27 02:31N 50°15' W 125°23'5 9.2
2017-May-27 01:59N 50°20' W 125°25'1015.7
2017-May-27 01:21N 50°22' W 125°41'1517.5
2017-May-27 00:28N 50°27' W 126°04'917.7
2017-May-26 23:58N 50°29' W 126°17'817.8
2017-May-26 23:29N 50°30' W 126°30'1017.4
2017-May-26 22:55N 50°33' W 126°46'815.9
2017-May-26 22:26N 50°35' W 126°57'512.0
2017-May-26 22:00N 50°37' W 127°05'1016.7
2017-May-26 21:24N 50°42' W 127°18'2714.8
2017-May-26 19:35N 51°02' W 127°47'116.4
2017-May-26 19:30N 51°03' W 127°47'816.2
2017-May-26 19:00N 51°11' W 127°51'815.6
2017-May-26 18:30N 51°19' W 127°52'815.3
2017-May-26 18:00N 51°27' W 127°51'815.9
2017-May-26 17:30N 51°34' W 127°53'815.8
2017-May-26 17:01N 51°42' W 127°55'815.9
2017-May-26 16:31N 51°50' W 127°56'816.2
2017-May-26 16:01N 51°58' W 127°56'1212.5
2017-May-26 15:04N 52°07' W 128°08'115.6
2017-May-26 15:01N 52°08' W 128°08'8 8.6
2017-May-26 14:05N 52°14' W 128°16'915.8
2017-May-26 13:30N 52°16' W 128°30'815.5
2017-May-26 13:00N 52°24' W 128°30'917.0
2017-May-26 12:28N 52°33' W 128°28'  
2017-May-22 05:00N 57°42' W 152°24'43 1.2 270 / 11004.510.8 14.4 5.9
2017-May-20 16:00N 57°00' W 152°06'   090 / 131011.0 5.4 7.8 3.1

Dump ship's entire track history